Time;durP1;ratioP1;P1;durP2;ratioP2;P2;SDS_P1;SDS_P2;PMS_P1;PMS_P2;Temp;Humidity;BMP_temperature;BMP_pressure;BME280_temperature;BME280_humidity;BME280_pressure;Samples;Min_cycle;Max_cycle;Signal;HPM_P1;HPM_P2
2022/05/17 00:03:29;;;;;;;1.50;1.40;;;;;;;14.63;65.47;101907.75;6216591;23;20027;-79
2022/05/17 00:06:26;;;;;;;2.00;1.00;;;;;;;14.67;65.93;101926.91;6216934;23;20430;-79
2022/05/17 00:17:28;;;;;;;1.48;1.20;;;;;;;14.40;65.66;101912.47;6156777;23;20511;-79
2022/05/17 00:19:53;;;;;;;1.08;0.98;;;;;;;14.33;65.83;101903.84;6156876;23;20005;-79
2022/05/17 00:22:43;;;;;;;1.43;1.10;;;;;;;14.32;66.11;101909.94;6157794;23;20078;-79
2022/05/17 00:25:12;;;;;;;1.20;1.20;;;;;;;14.27;66.20;101909.13;6196460;22;21542;-79
2022/05/17 00:27:37;;;;;;;1.30;1.20;;;;;;;14.23;66.30;101910.09;6247581;23;20024;-79
2022/05/17 00:38:26;;;;;;;1.63;1.52;;;;;;;14.01;66.75;101889.47;6213949;22;20020;-79
2022/05/17 00:48:06;;;;;;;1.40;1.30;;;;;;;13.97;66.79;101896.47;6212146;23;20019;-79
2022/05/17 00:50:53;;;;;;;1.30;1.20;;;;;;;13.93;67.08;101907.84;6248150;23;20004;-79
2022/05/17 00:53:35;;;;;;;1.50;1.40;;;;;;;13.92;66.97;101902.63;6247747;23;20004;-79
2022/05/17 00:56:07;;;;;;;1.40;1.30;;;;;;;13.89;67.14;101903.53;6246495;23;20429;-79
2022/05/17 00:58:41;;;;;;;1.20;1.10;;;;;;;13.87;67.37;101900.97;6247210;23;20001;-79
2022/05/17 01:01:10;;;;;;;1.50;1.40;;;;;;;13.83;67.71;101899.25;6247461;23;20004;-79
2022/05/17 01:04:03;;;;;;;1.38;1.27;;;;;;;13.84;67.49;101908.81;6247269;23;20058;-79
2022/05/17 01:06:35;;;;;;;1.90;1.50;;;;;;;13.85;67.88;101899.22;6246121;23;20483;-79
2022/05/17 01:09:01;;;;;;;1.42;1.33;;;;;;;13.85;67.65;101896.63;6246695;23;20008;-79
2022/05/17 01:11:32;;;;;;;2.37;1.33;;;;;;;13.85;67.75;101901.81;6246964;23;20018;-79
2022/05/17 01:29:28;;;;;;;1.98;1.50;;;;;;;13.76;68.62;101887.16;6237881;22;20387;-80
2022/05/17 01:31:53;;;;;;;1.57;1.43;;;;;;;13.75;68.65;101886.28;6246357;23;20016;-80
2022/05/17 01:34:19;;;;;;;1.60;1.50;;;;;;;13.76;68.54;101887.16;6245430;23;20005;-80
2022/05/17 01:46:16;;;;;;;1.67;1.50;;;;;;;13.83;68.45;101887.97;6246733;23;20015;-80
2022/05/17 01:52:14;;;;;;;2.00;1.52;;;;;;;13.93;68.91;101894.78;6246688;23;20070;-80
2022/05/17 01:55:39;;;;;;;2.10;1.77;;;;;;;13.98;68.82;101900.81;6245577;23;20090;-80
2022/05/17 01:58:05;;;;;;;1.70;1.60;;;;;;;14.02;69.05;101893.78;6245443;23;20337;-80
2022/05/17 02:01:38;;;;;;;1.83;1.52;;;;;;;13.97;69.36;101883.41;6246053;23;20008;-80
2022/05/17 02:04:03;;;;;;;3.25;1.88;;;;;;;14.03;69.29;101900.75;6185622;22;20102;-80
2022/05/17 02:09:19;;;;;;;1.70;1.60;;;;;;;13.99;69.38;101889.47;6236593;22;20035;-79
2022/05/17 02:12:51;;;;;;;1.65;1.50;;;;;;;14.06;69.39;101898.09;6246008;23;20040;-79
2022/05/17 02:20:59;;;;;;;1.90;1.80;;;;;;;14.05;69.88;101889.41;6245385;22;20106;-79
2022/05/17 02:23:24;;;;;;;1.63;1.53;;;;;;;14.07;70.13;101891.16;6244743;23;20035;-79
2022/05/17 02:25:50;;;;;;;1.50;1.30;;;;;;;14.04;70.40;101895.53;6246124;23;20015;-79
2022/05/17 02:28:16;;;;;;;1.00;1.00;;;;;;;14.06;70.83;101895.50;6245527;23;20019;-79
2022/05/17 02:30:43;;;;;;;1.50;1.40;;;;;;;14.05;71.64;101888.53;6245438;23;20035;-80
2022/05/17 02:33:09;;;;;;;1.50;1.40;;;;;;;14.05;70.55;101896.38;6246319;23;20005;-79
2022/05/17 02:35:35;;;;;;;2.25;1.50;;;;;;;14.08;70.42;101903.28;6246080;23;20004;-79
2022/05/17 02:38:00;;;;;;;1.67;1.40;;;;;;;14.11;70.34;101903.25;6244789;23;20047;-79
2022/05/17 02:40:26;;;;;;;1.73;1.60;;;;;;;14.12;70.15;101897.16;6246259;23;20058;-79
2022/05/17 02:42:51;;;;;;;1.87;1.30;;;;;;;14.13;70.11;101896.28;6245409;23;20075;-79
2022/05/17 02:45:16;;;;;;;1.40;1.30;;;;;;;14.17;70.03;101900.59;6243954;23;20148;-80
2022/05/17 02:47:42;;;;;;;1.60;1.50;;;;;;;14.19;70.03;101904.00;6246266;23;20406;-80
2022/05/17 02:50:10;;;;;;;1.37;1.27;;;;;;;14.20;70.04;101901.41;6244954;23;20008;-79
2022/05/17 02:52:37;;;;;;;1.40;1.30;;;;;;;14.23;70.07;101907.47;6245022;23;20324;-79
2022/05/17 02:55:04;;;;;;;;;;;;;;;14.23;69.99;101913.53;6246311;23;20410;-79
2022/05/17 02:57:32;;;;;;;2.25;1.65;;;;;;;14.24;69.87;101920.50;6245563;23;19912;-79
2022/05/17 02:59:58;;;;;;;1.60;1.50;;;;;;;14.23;70.00;101917.91;6244473;23;20008;-79
2022/05/17 03:02:23;;;;;;;1.67;1.57;;;;;;;14.22;69.97;101914.44;6244661;23;20012;-80
2022/05/17 03:04:48;;;;;;;1.73;1.60;;;;;;;14.19;69.89;101912.72;6245810;23;20079;-79
2022/05/17 03:07:20;;;;;;;1.60;1.50;;;;;;;14.18;69.91;101915.38;6245002;23;20011;-79
2022/05/17 03:09:45;;;;;;;1.75;1.63;;;;;;;14.13;69.94;101912.78;6246307;23;20008;-80
2022/05/17 03:12:10;;;;;;;3.40;1.83;;;;;;;14.13;69.94;101912.78;6245297;23;20719;-80
2022/05/17 03:14:36;;;;;;;2.17;1.70;;;;;;;14.11;70.00;101911.97;6245618;23;20008;-79
2022/05/17 03:17:09;;;;;;;2.23;1.80;;;;;;;14.08;70.15;101921.56;6245927;23;20382;-79
2022/05/17 03:19:34;;;;;;;2.00;1.80;;;;;;;14.06;70.23;101918.97;6244215;23;20078;-79
2022/05/17 03:22:05;;;;;;;2.57;2.00;;;;;;;14.04;70.12;101912.91;6245595;23;20004;-80
2022/05/17 03:24:31;;;;;;;2.25;1.80;;;;;;;14.03;70.16;101914.69;6246445;23;20075;-80
2022/05/17 03:26:57;;;;;;;1.77;1.67;;;;;;;14.01;70.22;101912.97;6244586;23;20055;-79
2022/05/17 03:36:22;;;;;;;2.55;1.90;;;;;;;13.90;70.52;101913.94;6123606;23;20022;-79
2022/05/17 03:43:06;;;;;;;2.10;1.83;;;;;;;13.87;70.61;101914.00;5991452;23;20468;-79
2022/05/17 03:45:50;;;;;;;1.98;1.77;;;;;;;13.85;70.59;101914.88;6008961;23;20443;-79
2022/05/17 03:48:16;;;;;;;1.98;1.80;;;;;;;13.77;70.86;101901.94;6010559;23;20018;-80
2022/05/17 03:54:37;;;;;;;2.72;1.90;;;;;;;13.82;70.70;101920.16;6008727;23;20103;-79
2022/05/17 04:03:56;;;;;;;2.45;1.80;;;;;;;13.75;71.24;101914.13;6122819;23;20432;-80
2022/05/17 04:06:43;;;;;;;2.03;1.83;;;;;;;13.75;71.12;101919.34;6123498;23;20061;-80
2022/05/17 04:09:39;;;;;;;2.13;1.92;;;;;;;13.74;70.86;101926.31;6122288;23;20007;-79
2022/05/17 04:12:05;;;;;;;1.70;1.60;;;;;;;13.74;71.09;101923.69;6123310;23;20016;-80
2022/05/17 04:14:33;;;;;;;2.05;1.80;;;;;;;13.73;71.30;101929.81;6099515;23;20014;-80
2022/05/17 04:17:01;;;;;;;2.80;1.80;;;;;;;13.72;71.19;101927.22;6122578;23;20010;-80
2022/05/17 04:19:26;;;;;;;2.28;1.80;;;;;;;13.74;71.16;101934.13;6218523;23;20020;-80
2022/05/17 04:21:52;;;;;;;1.80;1.70;;;;;;;13.75;71.27;101927.19;6245007;23;20083;-79
2022/05/17 04:24:17;;;;;;;1.93;1.60;;;;;;;13.77;71.54;101934.97;6246386;23;20005;-79
2022/05/17 04:26:42;;;;;;;1.83;1.73;;;;;;;13.79;71.48;101933.22;6247394;23;20077;-80
2022/05/17 04:29:08;;;;;;;1.57;1.47;;;;;;;13.83;71.54;101937.53;6248374;23;20031;-80
2022/05/17 04:31:35;;;;;;;1.90;1.80;;;;;;;13.85;71.30;101931.41;6246303;23;20008;-79
2022/05/17 04:34:01;;;;;;;1.60;1.50;;;;;;;13.89;71.53;101943.56;6247176;23;20004;-79
2022/05/17 04:36:26;;;;;;;1.50;1.40;;;;;;;13.93;71.62;101940.88;6247003;23;20383;-80
2022/05/17 04:38:52;;;;;;;1.90;1.80;;;;;;;13.96;71.61;101940.88;6246287;23;20004;-80
2022/05/17 04:41:21;;;;;;;1.83;1.70;;;;;;;14.00;71.83;101947.78;6247456;23;20310;-80
2022/05/17 04:43:46;;;;;;;1.70;1.60;;;;;;;14.02;71.97;101938.16;6246183;23;20551;-79
2022/05/17 04:46:14;;;;;;;2.53;1.80;;;;;;;14.06;71.82;101937.25;6248388;23;20028;-80
2022/05/17 04:48:39;;;;;;;2.15;1.50;;;;;;;14.09;72.18;101942.44;6247226;23;20011;-79
2022/05/17 04:51:17;;;;;;;1.70;1.60;;;;;;;14.11;72.01;101945.03;6246297;23;20004;-80
2022/05/17 04:53:43;;;;;;;1.55;1.45;;;;;;;14.16;72.08;101945.84;6246372;23;20005;-79
2022/05/17 04:56:09;;;;;;;2.10;1.47;;;;;;;14.23;72.02;101957.06;6247618;23;20038;-79
2022/05/17 04:58:35;;;;;;;1.60;1.50;;;;;;;14.28;71.88;101958.75;6246134;23;20000;-79
2022/05/17 05:01:00;;;;;;;1.57;1.40;;;;;;;14.33;71.78;101956.91;6246828;23;20006;-80
2022/05/17 05:03:26;;;;;;;1.70;1.60;;;;;;;14.40;71.91;101949.88;6246754;23;20455;-80
2022/05/17 05:05:52;;;;;;;2.10;1.50;;;;;;;14.46;72.11;101948.94;6245765;23;20004;-80
2022/05/17 05:08:17;;;;;;;1.97;1.53;;;;;;;14.53;71.93;101953.16;6246918;23;20027;-80
2022/05/17 05:10:45;;;;;;;1.70;1.60;;;;;;;14.61;72.10;101955.69;6246217;23;20325;-80
2022/05/17 05:13:15;;;;;;;1.60;1.40;;;;;;;14.69;72.51;101959.09;6246481;23;20004;-80
2022/05/17 05:15:41;;;;;;;2.08;1.75;;;;;;;14.75;72.86;101952.91;6246426;23;20418;-80
2022/05/17 05:18:06;;;;;;;1.60;1.43;;;;;;;14.80;72.39;101961.53;6247463;23;20008;-80
2022/05/17 05:20:32;;;;;;;1.30;1.30;;;;;;;14.85;72.33;101958.84;6245977;23;20445;-79
2022/05/17 05:22:57;;;;;;;2.13;1.43;;;;;;;14.88;72.10;101964.88;6247190;23;20024;-80
2022/05/17 05:25:23;;;;;;;1.77;1.50;;;;;;;14.91;72.64;101970.06;6247000;23;20007;-80
2022/05/17 05:27:48;;;;;;;1.20;1.17;;;;;;;14.96;72.37;101975.22;6246212;23;20009;-80
2022/05/17 05:30:15;;;;;;;1.20;1.10;;;;;;;14.99;72.20;101975.19;6247096;23;20008;-80
2022/05/17 05:32:40;;;;;;;2.15;1.20;;;;;;;15.02;72.76;101964.69;6246124;23;20004;-80
2022/05/17 05:35:06;;;;;;;1.83;1.20;;;;;;;15.04;72.57;101973.34;6246093;23;20004;-79
2022/05/17 05:37:31;;;;;;;1.10;1.10;;;;;;;15.04;72.62;101970.72;6246581;23;20004;-80
2022/05/17 05:39:57;;;;;;;1.50;1.30;;;;;;;15.07;72.27;101977.69;6245554;23;20433;-80
2022/05/17 05:42:22;;;;;;;0.97;0.97;;;;;;;15.13;72.52;101983.69;6247001;23;20007;-80
2022/05/17 05:44:50;;;;;;;1.20;1.20;;;;;;;15.18;72.23;101987.94;6245902;23;20007;-79
2022/05/17 05:47:16;;;;;;;1.38;1.10;;;;;;;15.24;72.09;101998.34;6245395;23;20721;-77
2022/05/17 05:49:41;;;;;;;2.37;1.50;;;;;;;15.29;72.09;101991.25;6246177;23;20018;-77
2022/05/17 05:52:07;;;;;;;1.30;1.20;;;;;;;15.36;72.21;101992.91;6246878;23;20008;-77
2022/05/17 05:54:32;;;;;;;1.30;1.20;;;;;;;15.42;72.33;101994.53;6246071;23;20010;-77
2022/05/17 05:57:01;;;;;;;1.30;1.20;;;;;;;15.47;72.79;102003.16;6247331;23;20004;-77
2022/05/17 05:59:28;;;;;;;1.23;1.13;;;;;;;15.50;72.38;101995.28;6246736;23;20535;-77
2022/05/17 06:01:54;;;;;;;1.52;1.42;;;;;;;15.53;73.37;101995.22;6245772;23;20074;-77
2022/05/17 06:04:19;;;;;;;1.70;1.33;;;;;;;15.52;72.70;101990.88;6247092;23;20417;-78
2022/05/17 06:06:44;;;;;;;1.00;1.00;;;;;;;15.54;72.57;101985.59;6245826;23;20111;-78
2022/05/17 06:09:12;;;;;;;1.10;1.10;;;;;;;15.56;72.25;101982.06;6245898;23;20024;-79
2022/05/17 06:11:38;;;;;;;1.95;1.20;;;;;;;15.60;72.23;101994.22;6245987;23;20004;-79
2022/05/17 06:14:03;;;;;;;1.07;1.07;;;;;;;15.64;72.25;101992.41;6246894;23;20014;-80
2022/05/17 06:16:28;;;;;;;1.10;1.00;;;;;;;15.67;72.53;101991.47;6245612;23;20000;-78
2022/05/17 06:18:54;;;;;;;1.27;1.27;;;;;;;15.71;72.41;101996.63;6246629;23;20087;-77
2022/05/17 06:29:52;;;;;;;3.15;1.80;;;;;;;15.79;72.20;101990.41;6245472;23;20463;-77
2022/05/17 06:35:41;;;;;;;1.92;1.70;;;;;;;15.87;71.78;102004.22;6245239;23;20103;-77
2022/05/17 06:38:16;;;;;;;1.75;1.50;;;;;;;15.93;71.87;102001.47;6244525;23;20413;-80
2022/05/17 06:40:41;;;;;;;2.28;1.45;;;;;;;15.95;71.81;102006.69;6245154;23;20023;-80
2022/05/17 06:43:07;;;;;;;1.50;1.40;;;;;;;16.01;71.74;102009.19;6245992;23;20000;-80
2022/05/17 06:45:33;;;;;;;2.33;1.70;;;;;;;16.02;71.69;102019.66;6244500;23;20380;-80
2022/05/17 06:48:01;;;;;;;1.85;1.50;;;;;;;16.04;71.77;102017.84;6245921;23;20337;-80
2022/05/17 06:50:28;;;;;;;1.60;1.50;;;;;;;16.08;71.63;102028.25;6244552;23;20004;-80
2022/05/17 06:52:53;;;;;;;2.28;1.63;;;;;;;16.10;71.75;102029.09;6245405;23;20003;-80
2022/05/17 06:55:19;;;;;;;2.87;2.20;;;;;;;16.09;72.19;102030.00;6245493;23;20329;-82
2022/05/17 06:57:44;;;;;;;5.03;2.20;;;;;;;16.07;73.16;102024.78;6244475;23;20004;-81
2022/05/17 07:00:12;;;;;;;2.80;1.87;;;;;;;16.06;72.07;102028.31;6245409;23;20364;-81
2022/05/17 07:02:38;;;;;;;2.78;1.90;;;;;;;16.10;71.85;102034.34;6245085;23;20012;-81
2022/05/17 07:05:04;;;;;;;2.53;1.50;;;;;;;16.13;71.83;102031.66;6244916;23;20061;-80
2022/05/17 07:07:29;;;;;;;2.27;1.80;;;;;;;16.15;71.23;102029.88;6245319;23;20689;-80
2022/05/17 07:15:22;;;;;;;2.17;1.80;;;;;;;16.30;71.53;102036.56;6244857;23;20014;-81
2022/05/17 07:17:47;;;;;;;2.43;1.60;;;;;;;16.33;71.63;102036.47;6244373;23;20000;-82
2022/05/17 07:20:14;;;;;;;1.73;1.50;;;;;;;16.38;71.77;102042.50;6244376;23;20074;-82
2022/05/17 07:23:18;;;;;;;2.42;1.80;;;;;;;16.38;71.77;102033.81;6245036;23;20000;-82
2022/05/17 07:25:45;;;;;;;2.58;1.73;;;;;;;16.42;71.65;102036.31;6241642;23;20428;-83
2022/05/17 07:28:17;;;;;;;2.60;1.75;;;;;;;16.47;71.71;102042.31;6245819;23;20000;-81
2022/05/17 07:30:42;;;;;;;2.40;1.67;;;;;;;16.48;73.01;102041.41;6245348;23;20008;-82
2022/05/17 07:33:08;;;;;;;1.60;1.50;;;;;;;16.47;72.66;102050.16;6244413;23;20000;-83
2022/05/17 07:35:33;;;;;;;1.80;1.70;;;;;;;16.44;72.73;102047.59;6244791;23;20015;-81
2022/05/17 07:37:58;;;;;;;1.57;1.43;;;;;;;16.49;73.19;102051.00;6244896;23;20027;-83
2022/05/17 07:40:24;;;;;;;1.70;1.60;;;;;;;16.50;72.33;102037.03;6244618;23;20036;-83
2022/05/17 07:42:55;;;;;;;1.93;1.60;;;;;;;16.54;73.29;102031.72;6245057;23;20016;-82
2022/05/17 07:45:21;;;;;;;1.65;1.50;;;;;;;16.53;72.59;102028.22;6245180;23;20004;-81
2022/05/17 07:47:46;;;;;;;1.70;1.60;;;;;;;16.49;73.63;102016.94;6244140;23;20007;-83
2022/05/17 07:50:15;;;;;;;1.60;1.50;;;;;;;16.50;73.49;102025.66;6245623;23;20440;-84
2022/05/17 07:52:50;;;;;;;1.50;1.40;;;;;;;16.47;74.29;102025.75;6244833;23;20372;-85
2022/05/17 07:55:15;;;;;;;1.98;1.30;;;;;;;16.47;73.34;102038.84;6244292;23;20422;-85
2022/05/17 07:57:46;;;;;;;1.87;1.30;;;;;;;16.52;73.42;102039.59;6246270;23;20054;-85
2022/05/17 08:00:12;;;;;;;1.50;1.40;;;;;;;16.51;73.35;102040.47;6246952;23;20007;-85
2022/05/17 08:03:08;;;;;;;1.70;1.60;;;;;;;16.64;73.22;102049.81;6246052;23;20004;-85
2022/05/17 08:05:34;;;;;;;2.63;2.10;;;;;;;16.71;73.41;102055.78;6247507;23;20000;-85
2022/05/17 08:07:59;;;;;;;1.70;1.60;;;;;;;16.80;73.61;102052.13;6246372;23;20362;-85
2022/05/17 08:10:27;;;;;;;2.03;1.83;;;;;;;16.91;73.83;102051.84;6247652;23;20302;-84
2022/05/17 08:12:53;;;;;;;2.22;1.70;;;;;;;16.98;73.19;102046.47;6247083;23;20030;-84
2022/05/17 08:15:36;;;;;;;2.23;1.97;;;;;;;17.10;72.81;102047.09;6246038;23;20324;-85
2022/05/17 08:18:02;;;;;;;2.72;2.30;;;;;;;17.16;72.33;102048.72;6246018;23;20031;-84
2022/05/17 08:20:39;;;;;;;2.10;1.92;;;;;;;17.20;73.12;102042.50;6247212;23;20008;-84
2022/05/17 08:23:05;;;;;;;1.73;1.63;;;;;;;17.31;73.12;102052.72;6244999;23;20429;-84
2022/05/17 08:28:15;;;;;;;2.75;2.50;;;;;;;17.36;73.40;102058.72;6247384;23;20069;-83
2022/05/17 08:30:43;;;;;;;3.67;2.50;;;;;;;17.41;73.33;102060.34;6246118;23;20023;-83
2022/05/17 08:33:26;;;;;;;2.17;1.98;;;;;;;17.42;73.48;102045.44;6247096;23;20321;-84
2022/05/17 08:35:51;;;;;;;2.10;1.90;;;;;;;17.48;72.67;102045.31;6245646;23;20019;-84
2022/05/17 08:38:30;;;;;;;1.80;1.70;;;;;;;17.53;73.88;102046.03;6247384;23;20008;-82
2022/05/17 08:44:29;;;;;;;5.40;3.08;;;;;;;17.49;74.07;102054.91;6245902;23;20019;-82
2022/05/17 08:47:11;;;;;;;3.20;2.63;;;;;;;17.49;74.87;102061.91;6246803;23;20008;-82
2022/05/17 08:50:05;;;;;;;4.70;3.20;;;;;;;17.45;73.39;102053.25;6246468;23;20421;-81
2022/05/17 08:52:33;;;;;;;5.40;3.38;;;;;;;17.42;73.87;102048.06;6246991;23;20004;-82
2022/05/17 08:54:58;;;;;;;4.60;2.80;;;;;;;17.42;73.80;102054.19;6246367;23;20032;-82
2022/05/17 08:57:53;;;;;;;4.53;2.70;;;;;;;17.43;73.91;102034.94;6245148;23;20380;-82
2022/05/17 09:00:22;;;;;;;4.73;3.00;;;;;;;17.41;74.76;102027.97;6246147;23;20015;-82
2022/05/17 09:03:00;;;;;;;10.07;4.40;;;;;;;17.42;73.78;102030.56;6244866;23;20255;-82
2022/05/17 09:05:38;;;;;;;4.88;3.33;;;;;;;17.45;73.37;102030.47;6244921;23;20050;-82
2022/05/17 09:08:41;;;;;;;4.22;3.22;;;;;;;17.52;73.04;102032.97;6246288;23;20011;-81
2022/05/17 09:11:24;;;;;;;4.72;3.15;;;;;;;17.55;73.34;102030.28;6244352;23;20426;-81
2022/05/17 09:14:01;;;;;;;3.50;2.58;;;;;;;17.59;73.52;102034.53;6246355;23;20421;-81
2022/05/17 09:16:40;;;;;;;2.83;2.50;;;;;;;17.70;74.10;102036.88;6246897;23;20004;-82
2022/05/17 09:19:05;;;;;;;3.13;2.75;;;;;;;17.82;72.36;102025.16;6246036;23;20028;-82
2022/05/17 09:21:30;;;;;;;5.70;2.70;;;;;;;17.94;74.43;102024.00;6246920;23;20008;-82
2022/05/17 09:24:04;;;;;;;2.90;2.30;;;;;;;18.08;75.14;102028.88;6246614;23;20012;-81
2022/05/17 09:26:30;;;;;;;5.40;3.20;;;;;;;18.16;73.18;102025.16;6245518;23;20008;-82
2022/05/17 09:29:06;;;;;;;7.13;3.50;;;;;;;18.29;73.13;102019.53;6245951;23;20036;-82
2022/05/17 09:31:34;;;;;;;5.70;3.03;;;;;;;18.37;72.85;102022.81;6246259;23;20019;-82
2022/05/17 09:34:03;;;;;;;7.05;3.33;;;;;;;18.48;72.08;102019.84;6244804;23;20417;-82
2022/05/17 09:36:48;;;;;;;5.80;3.72;;;;;;;18.51;71.44;102007.50;6246486;23;20004;-81
2022/05/17 09:39:22;;;;;;;7.03;3.30;;;;;;;18.63;70.93;102015.91;6245055;23;20058;-82
2022/05/17 09:41:48;;;;;;;6.07;2.70;;;;;;;18.76;71.40;102011.13;6246192;23;20012;-81
2022/05/17 09:44:21;;;;;;;7.40;3.60;;;;;;;18.93;71.04;102016.72;6246625;23;20035;-82
2022/05/17 09:46:55;;;;;;;5.03;2.95;;;;;;;19.07;70.67;102012.81;6244953;23;20015;-82
2022/05/17 09:52:32;;;;;;;7.35;3.90;;;;;;;19.42;69.18;102008.13;6246328;23;20019;-82
2022/05/17 09:55:20;;;;;;;4.65;2.80;;;;;;;19.59;69.19;102011.03;6217855;23;20015;-82
2022/05/17 09:58:33;;;;;;;6.50;3.38;;;;;;;19.90;68.37;102009.13;6245772;23;20024;-82
2022/05/17 10:01:01;;;;;;;5.93;3.10;;;;;;;20.38;67.36;102010.00;6122470;23;20060;-82
2022/05/17 10:03:36;;;;;;;4.80;2.75;;;;;;;20.70;66.08;102009.66;6223908;23;20008;-80
2022/05/17 10:06:05;;;;;;;6.18;3.08;;;;;;;20.86;64.42;102007.31;6246259;23;20012;-80
2022/05/17 10:08:39;;;;;;;5.40;2.70;;;;;;;20.94;65.33;102002.59;6245385;23;20096;-80
2022/05/17 10:11:20;;;;;;;5.32;2.53;;;;;;;21.09;64.98;101993.19;6246554;23;20008;-79
2022/05/17 10:13:54;;;;;;;3.92;2.63;;;;;;;21.41;60.49;101985.69;6245878;23;20135;-80
2022/05/17 10:16:29;;;;;;;5.50;3.28;;;;;;;21.74;61.11;101986.00;6245140;23;20004;-80
2022/05/17 10:18:59;;;;;;;4.10;2.67;;;;;;;21.95;61.39;101982.47;6245427;23;20142;-82
2022/05/17 10:21:35;;;;;;;5.20;2.95;;;;;;;22.02;61.03;101978.63;6244513;23;20126;-81
2022/05/17 10:24:29;;;;;;;5.03;3.07;;;;;;;21.99;60.92;101981.44;6245581;23;20469;-80
2022/05/17 10:27:05;;;;;;;4.80;2.60;;;;;;;21.98;61.27;101977.91;6244142;23;20019;-81
2022/05/17 10:29:40;;;;;;;3.60;2.45;;;;;;;21.98;60.28;101972.63;6245063;23;20241;-81
2022/05/17 10:32:11;;;;;;;6.20;3.47;;;;;;;21.94;57.31;101975.47;6245993;23;20067;-81
2022/05/17 10:34:57;;;;;;;5.80;3.38;;;;;;;21.80;60.57;101976.09;6245865;23;20007;-81
2022/05/17 10:37:27;;;;;;;;;;;;;;;21.70;59.11;101981.81;6245289;23;20019;-81
2022/05/17 10:40:05;;;;;;;9.20;3.78;;;;;;;21.59;58.96;101978.78;6245422;23;19935;-81
2022/05/17 10:42:31;;;;;;;5.55;2.92;;;;;;;21.54;58.94;101973.69;6244915;23;20400;-82
2022/05/17 10:44:58;;;;;;;7.75;3.90;;;;;;;21.46;58.79;101973.13;6245734;23;20019;-81
2022/05/17 10:47:47;;;;;;;6.90;3.20;;;;;;;21.54;59.70;101975.44;6245925;23;20376;-81
2022/05/17 10:50:40;;;;;;;6.20;3.45;;;;;;;21.65;59.49;101975.00;6245236;23;20061;-81
2022/05/17 10:53:23;;;;;;;6.90;4.10;;;;;;;21.80;58.83;101973.47;6246217;23;20077;-81
2022/05/17 10:56:07;;;;;;;7.50;4.00;;;;;;;21.86;58.00;101975.81;6245868;23;20074;-81
2022/05/17 10:58:57;;;;;;;7.43;4.25;;;;;;;21.86;58.25;101967.91;6244647;23;20011;-82
2022/05/17 11:01:30;;;;;;;8.23;3.42;;;;;;;21.85;58.62;101971.47;6245588;23;20333;-81
2022/05/17 11:04:17;;;;;;;7.88;3.65;;;;;;;21.87;58.43;101965.19;6244281;23;20087;-81
2022/05/17 11:07:10;;;;;;;7.10;4.03;;;;;;;22.03;57.96;101962.72;6245263;23;20015;-81
2022/05/17 11:09:59;;;;;;;8.32;4.38;;;;;;;22.26;57.24;101962.56;6246021;23;20058;-82
2022/05/17 11:12:31;;;;;;;5.20;3.28;;;;;;;22.49;57.38;101950.94;6245071;23;20008;-82
2022/05/17 11:15:07;;;;;;;5.28;3.83;;;;;;;22.74;56.43;101949.75;6245390;23;20355;-82
2022/05/17 11:17:44;;;;;;;10.13;4.78;;;;;;;22.81;55.18;101938.75;6245002;23;20036;-82
2022/05/17 11:20:36;;;;;;;8.10;4.28;;;;;;;22.97;55.61;101938.00;6245615;23;20099;-86
2022/05/17 11:23:20;;;;;;;6.57;3.28;;;;;;;23.18;55.21;101941.34;6234996;23;20031;-80
2022/05/17 11:25:52;;;;;;;6.18;3.15;;;;;;;23.44;52.25;101937.38;6244121;23;20420;-80
2022/05/17 11:28:36;;;;;;;5.25;2.95;;;;;;;23.67;52.79;101927.34;6245411;23;20054;-80
2022/05/17 11:31:28;;;;;;;4.03;2.80;;;;;;;23.94;53.09;101920.63;6245339;23;20321;-82
2022/05/17 11:34:23;;;;;;;3.50;2.38;;;;;;;24.21;52.76;101920.91;6244194;23;20000;-80
2022/05/17 11:36:51;;;;;;;5.70;2.55;;;;;;;24.41;53.33;101910.97;6245154;23;20007;-80
2022/05/17 11:39:31;;;;;;;2.30;1.98;;;;;;;24.69;53.89;101906.75;6244035;23;20008;-81
2022/05/17 11:42:11;;;;;;;7.68;3.00;;;;;;;24.90;52.32;101902.84;6245437;23;20039;-81
2022/05/17 11:44:45;;;;;;;4.40;2.50;;;;;;;25.08;52.42;101906.19;6245198;23;20004;-81
2022/05/17 11:47:31;;;;;;;2.60;2.35;;;;;;;25.26;49.31;101909.53;6242043;22;20348;-79
2022/05/17 11:50:14;;;;;;;;;;;;;;;25.25;50.40;101902.50;6245289;23;20528;-79
2022/05/17 11:52:45;;;;;;;5.72;2.88;;;;;;;25.24;47.15;101891.97;6244687;23;20224;-79
2022/05/17 11:55:15;;;;;;;4.82;2.60;;;;;;;25.26;47.40;101898.03;6246039;23;20440;-82
2022/05/17 11:57:42;;;;;;;4.25;2.38;;;;;;;25.42;49.40;101892.66;6244980;23;20012;-80
2022/05/17 12:00:22;;;;;;;4.10;2.55;;;;;;;25.40;47.74;101887.47;6244377;23;20051;-79
2022/05/17 12:02:51;;;;;;;3.78;2.00;;;;;;;25.55;47.29;101885.66;6245272;23;20087;-79
2022/05/17 12:05:39;;;;;;;3.67;2.30;;;;;;;25.57;44.34;101881.09;6245467;23;20007;-80
2022/05/17 12:08:37;;;;;;;6.65;2.63;;;;;;;25.67;45.36;101877.84;6244646;23;20005;-79
2022/05/17 12:11:11;;;;;;;4.30;2.30;;;;;;;25.71;46.46;101872.22;6245579;23;20063;-80
2022/05/17 12:13:51;;;;;;;4.40;1.90;;;;;;;25.79;47.04;101863.78;6245210;23;20436;-79
2022/05/17 12:16:22;;;;;;;3.63;2.20;;;;;;;25.90;43.15;101868.38;6244928;23;20365;-81
2022/05/17 12:18:53;;;;;;;4.28;1.77;;;;;;;25.95;46.13;101862.81;6244373;23;20022;-79
2022/05/17 12:21:41;;;;;;;1.95;1.73;;;;;;;26.11;45.78;101862.69;6243592;23;20019;-80
2022/05/17 12:24:32;;;;;;;3.13;1.77;;;;;;;26.31;44.77;101862.22;6245078;23;20026;-80
2022/05/17 12:27:19;;;;;;;4.15;2.03;;;;;;;26.31;45.06;101853.38;6220355;23;20011;-82
2022/05/17 12:32:36;;;;;;;4.28;1.60;;;;;;;26.53;45.06;101836.84;6245830;23;20020;-81
2022/05/17 12:35:05;;;;;;;2.08;1.60;;;;;;;26.68;45.23;101843.75;6244021;23;19996;-81
2022/05/17 12:37:38;;;;;;;2.47;1.52;;;;;;;26.78;45.31;101835.19;6245303;23;20000;-82
2022/05/17 12:43:07;;;;;;;3.30;1.60;;;;;;;26.77;43.04;101825.47;6243650;23;20019;-83
2022/05/17 12:45:51;;;;;;;5.07;2.38;;;;;;;26.73;41.05;101818.63;6247222;23;20004;-83
2022/05/17 12:48:34;;;;;;;2.50;1.63;;;;;;;26.73;43.48;101821.28;6216568;23;20016;-82
2022/05/17 12:51:06;;;;;;;4.10;2.00;;;;;;;26.84;43.48;101818.78;6215390;23;20001;-83
2022/05/17 12:53:42;;;;;;;2.92;1.80;;;;;;;26.97;42.14;101821.44;6216346;23;20004;-83
2022/05/17 12:56:36;;;;;;;2.15;1.55;;;;;;;27.07;42.10;101817.19;6215908;23;20005;-82
2022/05/17 12:59:05;;;;;;;3.78;1.70;;;;;;;27.18;42.67;101810.25;6201973;23;20008;-82
2022/05/17 13:01:41;;;;;;;1.73;1.50;;;;;;;27.19;43.03;101817.28;6216040;23;20004;-82
2022/05/17 13:04:09;;;;;;;;;;;;;;;27.24;43.24;101805.34;6216019;23;20314;-83
2022/05/17 13:06:51;;;;;;;2.13;1.60;;;;;;;27.16;42.60;101809.50;6216154;23;19942;-89
2022/05/17 13:09:20;;;;;;;3.58;1.92;;;;;;;26.97;39.48;101803.66;6216414;23;20005;-82
2022/05/17 13:11:46;;;;;;;2.58;1.88;;;;;;;26.73;42.56;101803.53;6215208;23;20345;-84
2022/05/17 13:14:21;;;;;;;2.53;1.77;;;;;;;26.72;42.22;101803.63;6216256;23;20000;-85
2022/05/17 13:16:47;;;;;;;1.83;1.55;;;;;;;26.87;43.19;101802.59;6216380;23;20005;-84
2022/05/17 13:19:15;;;;;;;2.13;1.75;;;;;;;27.05;42.44;101800.47;6215756;23;20079;-84
2022/05/17 13:21:55;;;;;;;2.55;1.92;;;;;;;27.20;41.76;101798.50;6215944;23;20330;-84
2022/05/17 13:24:29;;;;;;;3.20;1.90;;;;;;;27.36;42.07;101792.09;6215806;23;20006;-84
2022/05/17 13:27:01;;;;;;;2.90;2.05;;;;;;;27.49;39.29;101787.59;6215959;23;20322;-85
2022/05/17 13:29:29;;;;;;;2.35;1.67;;;;;;;27.51;40.26;101791.00;6216248;23;20009;-83
2022/05/17 13:32:03;;;;;;;2.53;1.83;;;;;;;27.50;40.13;101785.78;6214709;23;20012;-84
2022/05/17 13:34:31;;;;;;;1.90;1.65;;;;;;;27.46;40.87;101785.16;6216179;23;20008;-84
2022/05/17 13:37:04;;;;;;;2.20;1.80;;;;;;;27.54;40.06;101774.78;6215822;23;20471;-87
2022/05/17 13:39:30;;;;;;;2.60;2.00;;;;;;;27.55;39.17;101786.28;6216142;23;20349;-85
2022/05/17 13:41:57;;;;;;;4.50;2.00;;;;;;;27.42;40.72;101770.31;6215962;23;20642;-84
2022/05/17 13:44:30;;;;;;;;;;;;;;;27.33;39.35;101774.50;6216759;23;20072;-84
2022/05/17 13:47:04;;;;;;;4.13;1.95;;;;;;;27.23;38.94;101776.13;6229511;23;19938;-84
2022/05/17 13:49:38;;;;;;;3.35;2.03;;;;;;;27.18;40.41;101776.44;6246519;23;20027;-86